sensor_id;sensor_type;location;lat;lon;timestamp;P1;durP1;ratioP1;P2;durP2;ratioP2
12986;SDS011;58897;51.960;5.582;2022-07-29T00:02:15;3.00;;;1.83;;
12986;SDS011;58897;51.960;5.582;2022-07-29T00:04:41;3.63;;;1.60;;
12986;SDS011;58897;51.960;5.582;2022-07-29T00:07:08;4.30;;;2.07;;
12986;SDS011;58897;51.960;5.582;2022-07-29T00:09:35;4.27;;;2.13;;
12986;SDS011;58897;51.960;5.582;2022-07-29T00:12:16;3.17;;;1.97;;
12986;SDS011;58897;51.960;5.582;2022-07-29T00:14:51;3.47;;;1.50;;
12986;SDS011;58897;51.960;5.582;2022-07-29T00:17:18;5.03;;;2.00;;
12986;SDS011;58897;51.960;5.582;2022-07-29T00:19:45;5.23;;;2.10;;
12986;SDS011;58897;51.960;5.582;2022-07-29T00:22:11;3.80;;;2.13;;
12986;SDS011;58897;51.960;5.582;2022-07-29T00:24:38;3.60;;;1.87;;
12986;SDS011;58897;51.960;5.582;2022-07-29T00:27:04;3.07;;;1.57;;
12986;SDS011;58897;51.960;5.582;2022-07-29T00:29:31;3.27;;;1.90;;
12986;SDS011;58897;51.960;5.582;2022-07-29T00:31:59;3.77;;;1.80;;
12986;SDS011;58897;51.960;5.582;2022-07-29T00:34:26;3.13;;;1.60;;
12986;SDS011;58897;51.960;5.582;2022-07-29T00:37:11;3.80;;;1.77;;
12986;SDS011;58897;51.960;5.582;2022-07-29T00:39:38;3.43;;;2.20;;
12986;SDS011;58897;51.960;5.582;2022-07-29T00:42:04;5.27;;;2.37;;
12986;SDS011;58897;51.960;5.582;2022-07-29T00:44:35;2.73;;;1.73;;
12986;SDS011;58897;51.960;5.582;2022-07-29T00:47:06;3.13;;;1.67;;
12986;SDS011;58897;51.960;5.582;2022-07-29T00:49:33;3.67;;;1.80;;
12986;SDS011;58897;51.960;5.582;2022-07-29T00:52:03;3.47;;;1.77;;
12986;SDS011;58897;51.960;5.582;2022-07-29T00:54:31;3.40;;;1.93;;
12986;SDS011;58897;51.960;5.582;2022-07-29T00:56:59;2.90;;;1.90;;
12986;SDS011;58897;51.960;5.582;2022-07-29T00:59:27;2.90;;;1.83;;
12986;SDS011;58897;51.960;5.582;2022-07-29T01:02:00;2.97;;;1.73;;
12986;SDS011;58897;51.960;5.582;2022-07-29T01:04:26;2.23;;;1.30;;
12986;SDS011;58897;51.960;5.582;2022-07-29T01:06:53;3.10;;;1.70;;
12986;SDS011;58897;51.960;5.582;2022-07-29T01:09:20;3.23;;;1.90;;
12986;SDS011;58897;51.960;5.582;2022-07-29T01:12:07;3.83;;;2.03;;
12986;SDS011;58897;51.960;5.582;2022-07-29T01:14:34;4.47;;;1.67;;
12986;SDS011;58897;51.960;5.582;2022-07-29T01:19:56;2.77;;;1.90;;
12986;SDS011;58897;51.960;5.582;2022-07-29T01:22:31;4.10;;;2.00;;
12986;SDS011;58897;51.960;5.582;2022-07-29T01:25:03;1.97;;;1.30;;
12986;SDS011;58897;51.960;5.582;2022-07-29T01:27:44;2.90;;;1.90;;
12986;SDS011;58897;51.960;5.582;2022-07-29T01:30:24;3.73;;;1.77;;
12986;SDS011;58897;51.960;5.582;2022-07-29T01:32:54;5.07;;;2.03;;
12986;SDS011;58897;51.960;5.582;2022-07-29T01:35:25;4.73;;;1.97;;
12986;SDS011;58897;51.960;5.582;2022-07-29T01:38:08;4.13;;;2.00;;
12986;SDS011;58897;51.960;5.582;2022-07-29T01:43:20;4.33;;;1.93;;
12986;SDS011;58897;51.960;5.582;2022-07-29T01:46:02;2.40;;;1.40;;
12986;SDS011;58897;51.960;5.582;2022-07-29T01:48:45;7.40;;;1.80;;
12986;SDS011;58897;51.960;5.582;2022-07-29T01:51:23;2.90;;;1.93;;
12986;SDS011;58897;51.960;5.582;2022-07-29T01:53:57;4.23;;;1.90;;
12986;SDS011;58897;51.960;5.582;2022-07-29T01:56:28;3.57;;;1.67;;
12986;SDS011;58897;51.960;5.582;2022-07-29T01:58:59;3.43;;;2.00;;
12986;SDS011;58897;51.960;5.582;2022-07-29T02:01:29;3.37;;;1.90;;
12986;SDS011;58897;51.960;5.582;2022-07-29T02:03:59;4.33;;;1.80;;
12986;SDS011;58897;51.960;5.582;2022-07-29T02:06:28;3.60;;;2.30;;
12986;SDS011;58897;51.960;5.582;2022-07-29T02:08:58;5.07;;;2.07;;
12986;SDS011;58897;51.960;5.582;2022-07-29T02:11:25;2.70;;;1.40;;
12986;SDS011;58897;51.960;5.582;2022-07-29T02:13:52;2.93;;;1.87;;
12986;SDS011;58897;51.960;5.582;2022-07-29T02:16:21;2.40;;;1.57;;
12986;SDS011;58897;51.960;5.582;2022-07-29T02:18:49;1.93;;;1.40;;
12986;SDS011;58897;51.960;5.582;2022-07-29T02:21:19;5.80;;;2.03;;
12986;SDS011;58897;51.960;5.582;2022-07-29T02:23:49;4.77;;;2.00;;
12986;SDS011;58897;51.960;5.582;2022-07-29T02:26:17;4.37;;;2.23;;
12986;SDS011;58897;51.960;5.582;2022-07-29T02:28:46;5.27;;;2.37;;
12986;SDS011;58897;51.960;5.582;2022-07-29T02:31:15;1.93;;;1.47;;
12986;SDS011;58897;51.960;5.582;2022-07-29T02:33:46;3.90;;;1.80;;
12986;SDS011;58897;51.960;5.582;2022-07-29T02:36:15;4.67;;;1.83;;
12986;SDS011;58897;51.960;5.582;2022-07-29T02:38:42;2.67;;;1.80;;
12986;SDS011;58897;51.960;5.582;2022-07-29T02:41:22;3.20;;;1.97;;
12986;SDS011;58897;51.960;5.582;2022-07-29T02:43:57;2.43;;;1.67;;
12986;SDS011;58897;51.960;5.582;2022-07-29T02:46:29;3.70;;;1.90;;
12986;SDS011;58897;51.960;5.582;2022-07-29T02:49:04;3.23;;;1.67;;
12986;SDS011;58897;51.960;5.582;2022-07-29T02:51:41;4.43;;;2.20;;
12986;SDS011;58897;51.960;5.582;2022-07-29T02:54:11;3.87;;;1.80;;
12986;SDS011;58897;51.960;5.582;2022-07-29T02:56:58;2.27;;;1.63;;
12986;SDS011;58897;51.960;5.582;2022-07-29T02:59:27;2.70;;;1.87;;
12986;SDS011;58897;51.960;5.582;2022-07-29T03:01:57;2.53;;;1.93;;
12986;SDS011;58897;51.960;5.582;2022-07-29T03:04:25;5.80;;;2.50;;
12986;SDS011;58897;51.960;5.582;2022-07-29T03:06:56;3.87;;;1.93;;
12986;SDS011;58897;51.960;5.582;2022-07-29T03:09:24;2.70;;;1.90;;
12986;SDS011;58897;51.960;5.582;2022-07-29T03:11:51;2.63;;;2.00;;
12986;SDS011;58897;51.960;5.582;2022-07-29T03:14:20;2.83;;;2.03;;
12986;SDS011;58897;51.960;5.582;2022-07-29T03:16:49;3.77;;;2.10;;
12986;SDS011;58897;51.960;5.582;2022-07-29T03:19:17;2.83;;;1.97;;
12986;SDS011;58897;51.960;5.582;2022-07-29T03:21:44;4.00;;;2.37;;
12986;SDS011;58897;51.960;5.582;2022-07-29T03:24:12;4.60;;;2.77;;
12986;SDS011;58897;51.960;5.582;2022-07-29T03:26:50;2.90;;;1.97;;
12986;SDS011;58897;51.960;5.582;2022-07-29T03:29:17;3.23;;;2.03;;
12986;SDS011;58897;51.960;5.582;2022-07-29T03:31:45;3.43;;;2.30;;
12986;SDS011;58897;51.960;5.582;2022-07-29T03:34:13;2.90;;;2.20;;
12986;SDS011;58897;51.960;5.582;2022-07-29T03:36:40;2.80;;;2.10;;
12986;SDS011;58897;51.960;5.582;2022-07-29T03:39:07;3.17;;;2.27;;
12986;SDS011;58897;51.960;5.582;2022-07-29T03:41:36;3.83;;;2.30;;
12986;SDS011;58897;51.960;5.582;2022-07-29T03:44:05;3.23;;;2.10;;
12986;SDS011;58897;51.960;5.582;2022-07-29T03:46:33;4.47;;;2.10;;
12986;SDS011;58897;51.960;5.582;2022-07-29T03:49:02;2.60;;;1.93;;
12986;SDS011;58897;51.960;5.582;2022-07-29T03:51:30;5.03;;;2.97;;
12986;SDS011;58897;51.960;5.582;2022-07-29T03:54:00;4.07;;;2.43;;
12986;SDS011;58897;51.960;5.582;2022-07-29T03:56:35;4.97;;;2.63;;
12986;SDS011;58897;51.960;5.582;2022-07-29T03:59:05;5.00;;;3.00;;
12986;SDS011;58897;51.960;5.582;2022-07-29T04:01:33;3.20;;;2.27;;
12986;SDS011;58897;51.960;5.582;2022-07-29T04:04:03;4.27;;;1.80;;
12986;SDS011;58897;51.960;5.582;2022-07-29T04:06:37;4.70;;;2.80;;
12986;SDS011;58897;51.960;5.582;2022-07-29T04:09:07;3.10;;;2.20;;
12986;SDS011;58897;51.960;5.582;2022-07-29T04:11:35;3.97;;;2.70;;
12986;SDS011;58897;51.960;5.582;2022-07-29T04:14:24;2.93;;;2.07;;
12986;SDS011;58897;51.960;5.582;2022-07-29T04:16:50;3.57;;;2.40;;
12986;SDS011;58897;51.960;5.582;2022-07-29T04:19:17;3.40;;;2.03;;
12986;SDS011;58897;51.960;5.582;2022-07-29T04:21:43;3.50;;;2.37;;
12986;SDS011;58897;51.960;5.582;2022-07-29T04:24:11;3.83;;;2.33;;
12986;SDS011;58897;51.960;5.582;2022-07-29T04:26:38;3.70;;;2.20;;
12986;SDS011;58897;51.960;5.582;2022-07-29T04:29:04;3.83;;;2.33;;
12986;SDS011;58897;51.960;5.582;2022-07-29T04:31:31;5.00;;;3.07;;
12986;SDS011;58897;51.960;5.582;2022-07-29T04:33:57;3.23;;;2.20;;
12986;SDS011;58897;51.960;5.582;2022-07-29T04:36:24;3.20;;;1.90;;
12986;SDS011;58897;51.960;5.582;2022-07-29T04:38:54;6.03;;;2.70;;
12986;SDS011;58897;51.960;5.582;2022-07-29T04:41:21;4.50;;;2.73;;
12986;SDS011;58897;51.960;5.582;2022-07-29T04:43:48;3.27;;;2.20;;
12986;SDS011;58897;51.960;5.582;2022-07-29T04:46:15;4.20;;;3.03;;
12986;SDS011;58897;51.960;5.582;2022-07-29T04:48:41;4.07;;;2.70;;
12986;SDS011;58897;51.960;5.582;2022-07-29T04:51:08;3.70;;;2.57;;
12986;SDS011;58897;51.960;5.582;2022-07-29T04:53:34;4.13;;;2.60;;
12986;SDS011;58897;51.960;5.582;2022-07-29T04:56:01;4.93;;;3.13;;
12986;SDS011;58897;51.960;5.582;2022-07-29T04:58:28;5.87;;;2.40;;
12986;SDS011;58897;51.960;5.582;2022-07-29T05:00:54;3.53;;;2.47;;
12986;SDS011;58897;51.960;5.582;2022-07-29T05:03:21;3.83;;;2.50;;
12986;SDS011;58897;51.960;5.582;2022-07-29T05:05:47;3.70;;;2.37;;
12986;SDS011;58897;51.960;5.582;2022-07-29T05:08:13;3.53;;;2.43;;
12986;SDS011;58897;51.960;5.582;2022-07-29T05:10:40;3.80;;;2.50;;
12986;SDS011;58897;51.960;5.582;2022-07-29T05:13:06;4.33;;;2.57;;
12986;SDS011;58897;51.960;5.582;2022-07-29T05:15:34;7.83;;;3.13;;
12986;SDS011;58897;51.960;5.582;2022-07-29T05:18:01;4.13;;;2.57;;
12986;SDS011;58897;51.960;5.582;2022-07-29T05:20:28;5.30;;;2.43;;
12986;SDS011;58897;51.960;5.582;2022-07-29T05:22:58;5.33;;;2.50;;
12986;SDS011;58897;51.960;5.582;2022-07-29T05:25:25;4.33;;;2.77;;
12986;SDS011;58897;51.960;5.582;2022-07-29T05:28:09;3.03;;;2.30;;
12986;SDS011;58897;51.960;5.582;2022-07-29T05:30:36;5.23;;;2.37;;
12986;SDS011;58897;51.960;5.582;2022-07-29T05:33:03;4.73;;;2.30;;
12986;SDS011;58897;51.960;5.582;2022-07-29T05:35:29;3.07;;;2.00;;
12986;SDS011;58897;51.960;5.582;2022-07-29T05:37:56;3.67;;;2.33;;
12986;SDS011;58897;51.960;5.582;2022-07-29T05:40:22;4.87;;;2.80;;
12986;SDS011;58897;51.960;5.582;2022-07-29T05:42:48;3.93;;;2.27;;
12986;SDS011;58897;51.960;5.582;2022-07-29T05:45:15;3.70;;;2.50;;
12986;SDS011;58897;51.960;5.582;2022-07-29T05:47:41;3.60;;;2.70;;
12986;SDS011;58897;51.960;5.582;2022-07-29T05:50:08;5.47;;;3.07;;
12986;SDS011;58897;51.960;5.582;2022-07-29T05:52:34;4.43;;;2.50;;
12986;SDS011;58897;51.960;5.582;2022-07-29T05:55:01;3.63;;;2.70;;
12986;SDS011;58897;51.960;5.582;2022-07-29T05:57:30;4.93;;;2.57;;
12986;SDS011;58897;51.960;5.582;2022-07-29T05:59:57;5.53;;;2.80;;
12986;SDS011;58897;51.960;5.582;2022-07-29T06:02:23;3.90;;;2.30;;
12986;SDS011;58897;51.960;5.582;2022-07-29T06:04:50;3.97;;;2.70;;
12986;SDS011;58897;51.960;5.582;2022-07-29T06:07:17;4.73;;;3.03;;
12986;SDS011;58897;51.960;5.582;2022-07-29T06:09:43;4.13;;;2.77;;
12986;SDS011;58897;51.960;5.582;2022-07-29T06:12:09;3.90;;;2.30;;
12986;SDS011;58897;51.960;5.582;2022-07-29T06:14:36;4.17;;;2.87;;
12986;SDS011;58897;51.960;5.582;2022-07-29T06:17:04;9.23;;;4.93;;
12986;SDS011;58897;51.960;5.582;2022-07-29T06:19:33;4.87;;;2.73;;
12986;SDS011;58897;51.960;5.582;2022-07-29T06:22:00;5.03;;;3.03;;
12986;SDS011;58897;51.960;5.582;2022-07-29T06:24:26;2.77;;;2.27;;
12986;SDS011;58897;51.960;5.582;2022-07-29T06:26:53;3.17;;;2.47;;
12986;SDS011;58897;51.960;5.582;2022-07-29T06:29:19;3.10;;;2.23;;
12986;SDS011;58897;51.960;5.582;2022-07-29T06:31:46;5.73;;;2.97;;
12986;SDS011;58897;51.960;5.582;2022-07-29T06:34:12;4.07;;;2.70;;
12986;SDS011;58897;51.960;5.582;2022-07-29T06:36:40;4.20;;;2.83;;
12986;SDS011;58897;51.960;5.582;2022-07-29T06:39:07;4.03;;;2.77;;
12986;SDS011;58897;51.960;5.582;2022-07-29T06:41:34;5.67;;;2.63;;
12986;SDS011;58897;51.960;5.582;2022-07-29T06:44:01;3.47;;;2.40;;
12986;SDS011;58897;51.960;5.582;2022-07-29T06:46:28;5.83;;;2.90;;
12986;SDS011;58897;51.960;5.582;2022-07-29T06:48:54;4.27;;;2.50;;
12986;SDS011;58897;51.960;5.582;2022-07-29T06:51:21;3.90;;;2.60;;
12986;SDS011;58897;51.960;5.582;2022-07-29T06:53:52;5.13;;;2.80;;
12986;SDS011;58897;51.960;5.582;2022-07-29T06:56:26;3.77;;;2.70;;
12986;SDS011;58897;51.960;5.582;2022-07-29T06:58:53;4.03;;;2.87;;
12986;SDS011;58897;51.960;5.582;2022-07-29T07:01:19;4.87;;;2.60;;
12986;SDS011;58897;51.960;5.582;2022-07-29T07:03:46;3.73;;;2.70;;
12986;SDS011;58897;51.960;5.582;2022-07-29T07:06:13;3.20;;;2.63;;
12986;SDS011;58897;51.960;5.582;2022-07-29T07:08:40;4.43;;;2.87;;
12986;SDS011;58897;51.960;5.582;2022-07-29T07:11:07;3.97;;;2.67;;
12986;SDS011;58897;51.960;5.582;2022-07-29T07:13:33;4.10;;;2.97;;
12986;SDS011;58897;51.960;5.582;2022-07-29T07:16:02;4.23;;;2.60;;
12986;SDS011;58897;51.960;5.582;2022-07-29T07:18:29;3.70;;;2.80;;
12986;SDS011;58897;51.960;5.582;2022-07-29T07:20:56;5.13;;;2.70;;
12986;SDS011;58897;51.960;5.582;2022-07-29T07:23:23;5.70;;;3.13;;
12986;SDS011;58897;51.960;5.582;2022-07-29T07:25:49;3.40;;;2.53;;
12986;SDS011;58897;51.960;5.582;2022-07-29T07:28:16;5.13;;;2.77;;
12986;SDS011;58897;51.960;5.582;2022-07-29T07:30:42;5.53;;;2.97;;
12986;SDS011;58897;51.960;5.582;2022-07-29T07:33:11;4.90;;;2.77;;
12986;SDS011;58897;51.960;5.582;2022-07-29T07:35:37;6.00;;;2.80;;
12986;SDS011;58897;51.960;5.582;2022-07-29T07:38:03;4.87;;;3.10;;
12986;SDS011;58897;51.960;5.582;2022-07-29T07:40:32;4.80;;;2.80;;
12986;SDS011;58897;51.960;5.582;2022-07-29T07:42:58;3.87;;;2.57;;
12986;SDS011;58897;51.960;5.582;2022-07-29T07:45:24;5.00;;;3.00;;
12986;SDS011;58897;51.960;5.582;2022-07-29T07:47:51;7.07;;;3.30;;
12986;SDS011;58897;51.960;5.582;2022-07-29T07:50:17;3.93;;;2.60;;
12986;SDS011;58897;51.960;5.582;2022-07-29T07:52:51;3.00;;;2.43;;
12986;SDS011;58897;51.960;5.582;2022-07-29T07:55:19;3.53;;;3.00;;
12986;SDS011;58897;51.960;5.582;2022-07-29T07:57:46;5.27;;;3.40;;
12986;SDS011;58897;51.960;5.582;2022-07-29T08:00:13;5.17;;;2.23;;
12986;SDS011;58897;51.960;5.582;2022-07-29T08:02:40;4.13;;;2.63;;
12986;SDS011;58897;51.960;5.582;2022-07-29T08:05:09;4.30;;;3.03;;
12986;SDS011;58897;51.960;5.582;2022-07-29T08:07:38;3.50;;;2.87;;
12986;SDS011;58897;51.960;5.582;2022-07-29T08:10:05;3.83;;;2.77;;
12986;SDS011;58897;51.960;5.582;2022-07-29T08:12:32;5.30;;;2.57;;
12986;SDS011;58897;51.960;5.582;2022-07-29T08:14:58;8.27;;;3.00;;
12986;SDS011;58897;51.960;5.582;2022-07-29T08:17:25;5.07;;;3.00;;
12986;SDS011;58897;51.960;5.582;2022-07-29T08:19:52;4.73;;;2.70;;
12986;SDS011;58897;51.960;5.582;2022-07-29T08:22:19;3.20;;;2.70;;
12986;SDS011;58897;51.960;5.582;2022-07-29T08:24:45;3.27;;;2.90;;
12986;SDS011;58897;51.960;5.582;2022-07-29T08:27:22;4.60;;;2.60;;
12986;SDS011;58897;51.960;5.582;2022-07-29T08:30:08;3.73;;;2.83;;
12986;SDS011;58897;51.960;5.582;2022-07-29T08:32:36;5.57;;;3.13;;
12986;SDS011;58897;51.960;5.582;2022-07-29T08:35:19;3.73;;;2.70;;
12986;SDS011;58897;51.960;5.582;2022-07-29T08:37:46;3.20;;;2.70;;
12986;SDS011;58897;51.960;5.582;2022-07-29T08:40:13;7.67;;;3.00;;
12986;SDS011;58897;51.960;5.582;2022-07-29T08:42:42;3.93;;;2.43;;
12986;SDS011;58897;51.960;5.582;2022-07-29T08:45:09;4.10;;;2.80;;
12986;SDS011;58897;51.960;5.582;2022-07-29T08:47:37;7.10;;;3.17;;
12986;SDS011;58897;51.960;5.582;2022-07-29T08:50:09;3.50;;;2.50;;
12986;SDS011;58897;51.960;5.582;2022-07-29T08:52:37;5.90;;;3.10;;
12986;SDS011;58897;51.960;5.582;2022-07-29T08:55:06;8.03;;;4.07;;
12986;SDS011;58897;51.960;5.582;2022-07-29T08:57:34;8.40;;;3.17;;
12986;SDS011;58897;51.960;5.582;2022-07-29T09:00:03;5.23;;;3.07;;
12986;SDS011;58897;51.960;5.582;2022-07-29T09:02:39;3.77;;;2.67;;
12986;SDS011;58897;51.960;5.582;2022-07-29T09:05:07;5.07;;;3.00;;
12986;SDS011;58897;51.960;5.582;2022-07-29T09:07:34;5.13;;;2.70;;
12986;SDS011;58897;51.960;5.582;2022-07-29T09:10:01;10.87;;;3.00;;
12986;SDS011;58897;51.960;5.582;2022-07-29T09:12:29;4.73;;;2.67;;
12986;SDS011;58897;51.960;5.582;2022-07-29T09:15:02;3.83;;;2.43;;
12986;SDS011;58897;51.960;5.582;2022-07-29T09:20:16;3.63;;;2.53;;
12986;SDS011;58897;51.960;5.582;2022-07-29T09:22:44;4.73;;;2.90;;
12986;SDS011;58897;51.960;5.582;2022-07-29T09:25:31;4.23;;;2.50;;
12986;SDS011;58897;51.960;5.582;2022-07-29T09:30:50;4.17;;;2.87;;
12986;SDS011;58897;51.960;5.582;2022-07-29T09:33:17;4.20;;;2.50;;
12986;SDS011;58897;51.960;5.582;2022-07-29T09:35:44;5.77;;;2.70;;
12986;SDS011;58897;51.960;5.582;2022-07-29T09:38:22;3.30;;;2.47;;
12986;SDS011;58897;51.960;5.582;2022-07-29T09:40:56;4.63;;;2.33;;
12986;SDS011;58897;51.960;5.582;2022-07-29T09:43:31;5.80;;;2.50;;
12986;SDS011;58897;51.960;5.582;2022-07-29T09:46:13;6.90;;;2.33;;
12986;SDS011;58897;51.960;5.582;2022-07-29T09:48:40;6.30;;;2.50;;
12986;SDS011;58897;51.960;5.582;2022-07-29T09:51:17;5.20;;;2.27;;
12986;SDS011;58897;51.960;5.582;2022-07-29T09:53:49;5.10;;;2.60;;
12986;SDS011;58897;51.960;5.582;2022-07-29T09:56:18;4.77;;;2.57;;
12986;SDS011;58897;51.960;5.582;2022-07-29T09:58:45;4.27;;;2.70;;
12986;SDS011;58897;51.960;5.582;2022-07-29T10:01:11;3.63;;;2.73;;
12986;SDS011;58897;51.960;5.582;2022-07-29T10:03:51;3.83;;;2.47;;
12986;SDS011;58897;51.960;5.582;2022-07-29T10:06:18;3.43;;;2.77;;
12986;SDS011;58897;51.960;5.582;2022-07-29T10:08:45;4.97;;;2.80;;
12986;SDS011;58897;51.960;5.582;2022-07-29T10:11:16;3.50;;;2.77;;
12986;SDS011;58897;51.960;5.582;2022-07-29T10:13:44;4.80;;;2.67;;
12986;SDS011;58897;51.960;5.582;2022-07-29T10:16:13;3.20;;;2.53;;
12986;SDS011;58897;51.960;5.582;2022-07-29T10:18:42;4.23;;;2.90;;
12986;SDS011;58897;51.960;5.582;2022-07-29T10:21:13;4.90;;;3.20;;
12986;SDS011;58897;51.960;5.582;2022-07-29T10:23:59;5.67;;;2.97;;
12986;SDS011;58897;51.960;5.582;2022-07-29T10:26:27;4.13;;;3.00;;
12986;SDS011;58897;51.960;5.582;2022-07-29T10:28:55;3.37;;;2.60;;
12986;SDS011;58897;51.960;5.582;2022-07-29T10:31:25;4.90;;;3.00;;
12986;SDS011;58897;51.960;5.582;2022-07-29T10:36:54;5.13;;;3.30;;
12986;SDS011;58897;51.960;5.582;2022-07-29T10:43:16;4.43;;;3.00;;
12986;SDS011;58897;51.960;5.582;2022-07-29T10:45:55;6.63;;;3.20;;
12986;SDS011;58897;51.960;5.582;2022-07-29T10:48:22;4.80;;;3.07;;
12986;SDS011;58897;51.960;5.582;2022-07-29T10:51:02;5.47;;;2.97;;
12986;SDS011;58897;51.960;5.582;2022-07-29T10:53:50;5.60;;;3.20;;
12986;SDS011;58897;51.960;5.582;2022-07-29T10:56:25;3.87;;;2.87;;
12986;SDS011;58897;51.960;5.582;2022-07-29T11:01:49;4.43;;;3.07;;
12986;SDS011;58897;51.960;5.582;2022-07-29T11:04:58;6.03;;;3.40;;
12986;SDS011;58897;51.960;5.582;2022-07-29T11:07:12;5.83;;;3.00;;
12986;SDS011;58897;51.960;5.582;2022-07-29T11:09:40;6.13;;;3.00;;
12986;SDS011;58897;51.960;5.582;2022-07-29T11:15:05;6.23;;;3.40;;
12986;SDS011;58897;51.960;5.582;2022-07-29T11:20:43;5.73;;;3.50;;
12986;SDS011;58897;51.960;5.582;2022-07-29T11:31:37;5.77;;;3.63;;
12986;SDS011;58897;51.960;5.582;2022-07-29T11:39:42;6.43;;;2.57;;
12986;SDS011;58897;51.960;5.582;2022-07-29T11:47:56;5.87;;;2.97;;
12986;SDS011;58897;51.960;5.582;2022-07-29T11:50:44;8.03;;;3.20;;
12986;SDS011;58897;51.960;5.582;2022-07-29T11:53:13;6.07;;;2.80;;
12986;SDS011;58897;51.960;5.582;2022-07-29T11:55:41;4.40;;;3.07;;
12986;SDS011;58897;51.960;5.582;2022-07-29T11:58:21;5.37;;;2.33;;
12986;SDS011;58897;51.960;5.582;2022-07-29T12:00:50;4.13;;;2.57;;
12986;SDS011;58897;51.960;5.582;2022-07-29T12:03:23;7.47;;;3.37;;
12986;SDS011;58897;51.960;5.582;2022-07-29T12:06:01;6.93;;;2.90;;
12986;SDS011;58897;51.960;5.582;2022-07-29T12:08:38;5.93;;;2.80;;
12986;SDS011;58897;51.960;5.582;2022-07-29T12:11:14;4.50;;;2.60;;
12986;SDS011;58897;51.960;5.582;2022-07-29T12:13:45;7.50;;;3.20;;
12986;SDS011;58897;51.960;5.582;2022-07-29T12:16:14;6.93;;;3.03;;
12986;SDS011;58897;51.960;5.582;2022-07-29T12:18:41;7.27;;;3.13;;
12986;SDS011;58897;51.960;5.582;2022-07-29T12:21:07;6.60;;;3.33;;
12986;SDS011;58897;51.960;5.582;2022-07-29T12:23:37;5.53;;;2.77;;
12986;SDS011;58897;51.960;5.582;2022-07-29T12:26:04;5.97;;;2.73;;
12986;SDS011;58897;51.960;5.582;2022-07-29T12:28:36;4.80;;;2.53;;
12986;SDS011;58897;51.960;5.582;2022-07-29T12:31:04;5.63;;;2.83;;
12986;SDS011;58897;51.960;5.582;2022-07-29T12:33:31;5.43;;;2.60;;
12986;SDS011;58897;51.960;5.582;2022-07-29T12:35:57;6.10;;;2.60;;
12986;SDS011;58897;51.960;5.582;2022-07-29T12:38:42;3.47;;;2.10;;
12986;SDS011;58897;51.960;5.582;2022-07-29T12:41:09;4.47;;;2.40;;
12986;SDS011;58897;51.960;5.582;2022-07-29T12:43:36;4.27;;;2.57;;
12986;SDS011;58897;51.960;5.582;2022-07-29T12:46:12;6.90;;;3.00;;
12986;SDS011;58897;51.960;5.582;2022-07-29T12:48:41;6.03;;;2.87;;
12986;SDS011;58897;51.960;5.582;2022-07-29T12:51:10;5.80;;;2.50;;
12986;SDS011;58897;51.960;5.582;2022-07-29T12:53:38;6.07;;;2.57;;
12986;SDS011;58897;51.960;5.582;2022-07-29T12:56:05;4.17;;;2.43;;
12986;SDS011;58897;51.960;5.582;2022-07-29T12:58:46;6.23;;;2.60;;
12986;SDS011;58897;51.960;5.582;2022-07-29T13:01:17;7.47;;;3.20;;
12986;SDS011;58897;51.960;5.582;2022-07-29T13:03:55;5.97;;;3.00;;
12986;SDS011;58897;51.960;5.582;2022-07-29T13:06:32;5.70;;;2.63;;
12986;SDS011;58897;51.960;5.582;2022-07-29T13:09:02;3.67;;;2.10;;
12986;SDS011;58897;51.960;5.582;2022-07-29T13:11:46;6.03;;;3.30;;
12986;SDS011;58897;51.960;5.582;2022-07-29T13:17:08;3.83;;;2.87;;
12986;SDS011;58897;51.960;5.582;2022-07-29T13:19:39;6.83;;;2.87;;
12986;SDS011;58897;51.960;5.582;2022-07-29T13:22:08;7.27;;;3.90;;
12986;SDS011;58897;51.960;5.582;2022-07-29T13:24:55;5.97;;;3.40;;
12986;SDS011;58897;51.960;5.582;2022-07-29T13:27:28;6.33;;;3.03;;
12986;SDS011;58897;51.960;5.582;2022-07-29T13:29:58;4.17;;;3.03;;
12986;SDS011;58897;51.960;5.582;2022-07-29T13:32:27;10.63;;;3.40;;
12986;SDS011;58897;51.960;5.582;2022-07-29T13:34:55;7.07;;;3.20;;
12986;SDS011;58897;51.960;5.582;2022-07-29T13:37:23;9.10;;;3.27;;
12986;SDS011;58897;51.960;5.582;2022-07-29T13:39:50;8.27;;;3.60;;
12986;SDS011;58897;51.960;5.582;2022-07-29T13:42:18;8.80;;;2.60;;
12986;SDS011;58897;51.960;5.582;2022-07-29T13:44:45;4.70;;;2.77;;
12986;SDS011;58897;51.960;5.582;2022-07-29T13:47:11;6.10;;;2.73;;
12986;SDS011;58897;51.960;5.582;2022-07-29T13:49:38;4.87;;;2.93;;
12986;SDS011;58897;51.960;5.582;2022-07-29T13:52:05;9.73;;;3.20;;
12986;SDS011;58897;51.960;5.582;2022-07-29T13:54:33;6.80;;;3.13;;
12986;SDS011;58897;51.960;5.582;2022-07-29T13:57:07;4.30;;;2.43;;
12986;SDS011;58897;51.960;5.582;2022-07-29T13:59:34;6.53;;;2.83;;
12986;SDS011;58897;51.960;5.582;2022-07-29T14:02:01;4.43;;;2.70;;
12986;SDS011;58897;51.960;5.582;2022-07-29T14:04:27;8.07;;;4.53;;
12986;SDS011;58897;51.960;5.582;2022-07-29T14:06:54;6.57;;;2.77;;
12986;SDS011;58897;51.960;5.582;2022-07-29T14:09:20;12.03;;;2.60;;
12986;SDS011;58897;51.960;5.582;2022-07-29T14:11:47;6.90;;;3.13;;
12986;SDS011;58897;51.960;5.582;2022-07-29T14:14:15;8.07;;;3.80;;
12986;SDS011;58897;51.960;5.582;2022-07-29T14:16:42;9.80;;;3.27;;
12986;SDS011;58897;51.960;5.582;2022-07-29T14:19:17;6.03;;;3.10;;
12986;SDS011;58897;51.960;5.582;2022-07-29T14:21:44;5.43;;;2.80;;
12986;SDS011;58897;51.960;5.582;2022-07-29T14:24:10;5.00;;;2.67;;
12986;SDS011;58897;51.960;5.582;2022-07-29T14:26:48;6.47;;;3.03;;
12986;SDS011;58897;51.960;5.582;2022-07-29T14:29:14;6.03;;;2.90;;
12986;SDS011;58897;51.960;5.582;2022-07-29T14:31:41;5.53;;;3.10;;
12986;SDS011;58897;51.960;5.582;2022-07-29T14:34:09;5.23;;;2.40;;
12986;SDS011;58897;51.960;5.582;2022-07-29T14:36:35;4.37;;;2.70;;
12986;SDS011;58897;51.960;5.582;2022-07-29T14:39:02;4.37;;;2.33;;
12986;SDS011;58897;51.960;5.582;2022-07-29T14:41:28;4.43;;;2.37;;
12986;SDS011;58897;51.960;5.582;2022-07-29T14:43:55;2.53;;;2.00;;
12986;SDS011;58897;51.960;5.582;2022-07-29T14:46:22;4.67;;;2.83;;
12986;SDS011;58897;51.960;5.582;2022-07-29T14:48:48;5.77;;;2.67;;
12986;SDS011;58897;51.960;5.582;2022-07-29T14:51:15;7.13;;;2.93;;
12986;SDS011;58897;51.960;5.582;2022-07-29T14:53:41;5.90;;;3.57;;
12986;SDS011;58897;51.960;5.582;2022-07-29T14:56:08;5.77;;;2.50;;
12986;SDS011;58897;51.960;5.582;2022-07-29T14:58:54;6.47;;;2.70;;
12986;SDS011;58897;51.960;5.582;2022-07-29T15:01:21;5.40;;;2.33;;
12986;SDS011;58897;51.960;5.582;2022-07-29T15:03:47;5.53;;;2.53;;
12986;SDS011;58897;51.960;5.582;2022-07-29T15:06:14;3.63;;;2.20;;
12986;SDS011;58897;51.960;5.582;2022-07-29T15:08:40;6.23;;;2.70;;
12986;SDS011;58897;51.960;5.582;2022-07-29T15:11:07;2.87;;;1.87;;
12986;SDS011;58897;51.960;5.582;2022-07-29T15:13:33;3.90;;;1.90;;
12986;SDS011;58897;51.960;5.582;2022-07-29T15:16:00;3.60;;;2.20;;
12986;SDS011;58897;51.960;5.582;2022-07-29T15:18:27;4.30;;;2.27;;
12986;SDS011;58897;51.960;5.582;2022-07-29T15:20:53;4.33;;;2.10;;
12986;SDS011;58897;51.960;5.582;2022-07-29T15:23:20;6.10;;;2.40;;
12986;SDS011;58897;51.960;5.582;2022-07-29T15:25:46;3.77;;;2.20;;
12986;SDS011;58897;51.960;5.582;2022-07-29T15:28:12;5.57;;;2.37;;
12986;SDS011;58897;51.960;5.582;2022-07-29T15:30:39;6.03;;;2.83;;
12986;SDS011;58897;51.960;5.582;2022-07-29T15:33:08;3.93;;;2.33;;
12986;SDS011;58897;51.960;5.582;2022-07-29T15:35:35;7.67;;;2.70;;
12986;SDS011;58897;51.960;5.582;2022-07-29T15:38:05;5.70;;;2.50;;
12986;SDS011;58897;51.960;5.582;2022-07-29T15:40:33;4.90;;;2.17;;
12986;SDS011;58897;51.960;5.582;2022-07-29T15:42:59;3.80;;;2.37;;
12986;SDS011;58897;51.960;5.582;2022-07-29T15:45:36;4.20;;;2.20;;
12986;SDS011;58897;51.960;5.582;2022-07-29T15:48:06;9.07;;;3.07;;
12986;SDS011;58897;51.960;5.582;2022-07-29T15:50:33;3.97;;;2.40;;
12986;SDS011;58897;51.960;5.582;2022-07-29T15:53:00;4.50;;;2.20;;